< < Back
Terminal Aerodrome Forecast


Current Version              Previous Versions:   1  2  3  4  5  6  7  8  9  

Terminal Aerodrome Forecast

848
FTUS42 KGSP 190800 AAB
TAFHKY
TAF AMD
KHKY 190844Z 1909/2006 04003KT 6SM BR SCT013 OVC026
      TEMPO 1909/1912 4SM BR BKN013
     FM191200 00000KT 4SM BR BKN013
     FM191400 09004KT P6SM BKN021
     FM191800 10004KT P6SM BKN050
     FM200300 04004KT P6SM BKN070=

Latest METAR

807
SAUS70 KWBC 191100 RRF
MTRHKY
METAR KHKY 191053Z 00000KT 6SM BR OVC012 18/17 A3012 RMK AO2 SLP182
T01830172


USA.gov is the U.S. government's official web portal to all federal, state and local government web resources and services.